Time;durP1;ratioP1;P1;durP2;ratioP2;P2;SDS_P1;SDS_P2;PMS_P1;PMS_P2;Temp;Humidity;BMP_temperature;BMP_pressure;BME280_temperature;BME280_humidity;BME280_pressure;Samples;Min_cycle;Max_cycle;Signal;HPM_P1;HPM_P2
2022/08/13 00:02:17;;;;;;;2.10;0.77;;;24.20;47.30;;;;;;5036897;28;20017;-76
2022/08/13 00:05:05;;;;;;;5.28;1.00;;;24.20;46.80;;;;;;5054789;28;20115;-81
2022/08/13 00:07:31;;;;;;;4.00;0.85;;;24.10;46.90;;;;;;5054581;28;20029;-81
2022/08/13 00:09:58;;;;;;;2.33;0.98;;;24.10;47.00;;;;;;5053218;28;20035;-82
2022/08/13 00:13:13;;;;;;;3.25;1.20;;;24.00;47.00;;;;;;5054338;28;20136;-81
2022/08/13 00:15:39;;;;;;;7.28;1.00;;;23.90;47.20;;;;;;5047089;28;20021;-81
2022/08/13 00:18:07;;;;;;;4.75;0.88;;;23.90;47.60;;;;;;5053289;28;20029;-81
2022/08/13 00:20:51;;;;;;;3.08;0.98;;;23.90;47.70;;;;;;5054438;28;20048;-81
2022/08/13 00:23:18;;;;;;;6.03;1.20;;;23.80;48.00;;;;;;5069730;28;20021;-81
2022/08/13 00:25:46;;;;;;;7.20;1.38;;;23.80;48.00;;;;;;5053000;28;20028;-81
2022/08/13 00:28:16;;;;;;;4.18;1.23;;;23.70;48.10;;;;;;5054612;28;20087;-81
2022/08/13 00:30:43;;;;;;;2.78;1.08;;;23.60;48.10;;;;;;5074034;28;20029;-81
2022/08/13 00:33:12;;;;;;;2.17;0.75;;;23.60;48.30;;;;;;5074401;28;20100;-82
2022/08/13 00:35:40;;;;;;;4.72;1.02;;;23.60;48.30;;;;;;5073948;28;20052;-81
2022/08/13 00:38:14;;;;;;;2.72;1.02;;;23.50;48.40;;;;;;5074673;28;20107;-81
2022/08/13 00:40:45;;;;;;;2.35;1.08;;;23.50;48.50;;;;;;5074163;28;20024;-81
2022/08/13 00:43:10;;;;;;;8.88;1.10;;;23.40;48.50;;;;;;5074029;28;20025;-81
2022/08/13 00:45:37;;;;;;;4.03;1.20;;;23.40;48.60;;;;;;5074134;28;20028;-81
2022/08/13 00:50:50;;;;;;;3.38;1.10;;;23.30;48.90;;;;;;5074357;28;20123;-81
2022/08/13 00:53:18;;;;;;;2.72;1.20;;;23.30;49.60;;;;;;5073935;28;20025;-81
2022/08/13 00:55:52;;;;;;;4.82;1.30;;;23.30;49.00;;;;;;5055819;28;20413;-81
2022/08/13 00:58:20;;;;;;;4.53;1.20;;;23.20;49.00;;;;;;5073701;28;20024;-81
2022/08/13 01:00:48;;;;;;;2.10;1.10;;;23.20;49.00;;;;;;5056094;28;20021;-81
2022/08/13 01:03:18;;;;;;;4.97;1.10;;;23.10;49.00;;;;;;5055707;28;20023;-81
2022/08/13 01:05:45;;;;;;;5.88;0.98;;;23.00;49.10;;;;;;5055833;28;20362;-81
2022/08/13 01:08:12;;;;;;;4.38;0.98;;;23.00;49.30;;;;;;5056074;28;20605;-81
2022/08/13 01:10:38;;;;;;;2.83;1.00;;;23.00;49.40;;;;;;5073532;28;20032;-81
2022/08/13 01:13:11;;;;;;;2.85;1.00;;;22.90;49.40;;;;;;5055882;28;20516;-81
2022/08/13 01:15:38;;;;;;;1.83;0.88;;;22.90;49.50;;;;;;5073432;28;20047;-81
2022/08/13 01:18:06;;;;;;;3.75;0.90;;;22.90;49.70;;;;;;5073335;28;20027;-81
2022/08/13 01:20:33;;;;;;;2.80;0.90;;;22.80;49.80;;;;;;5073461;28;20040;-81
2022/08/13 01:23:00;;;;;;;2.88;0.80;;;22.80;50.00;;;;;;5038821;28;20025;-81
2022/08/13 01:25:27;;;;;;;3.45;0.90;;;22.70;50.10;;;;;;5073535;28;20089;-81
2022/08/13 01:27:53;;;;;;;3.30;1.00;;;22.70;50.20;;;;;;5055878;28;20435;-81
2022/08/13 01:30:21;;;;;;;2.97;1.20;;;22.70;50.50;;;;;;5055467;28;20028;-81
2022/08/13 01:32:47;;;;;;;4.53;0.90;;;22.60;50.40;;;;;;5073279;28;20085;-81
2022/08/13 01:35:15;;;;;;;2.10;0.90;;;22.60;51.00;;;;;;5073254;28;20070;-81
2022/08/13 01:37:43;;;;;;;2.90;1.00;;;22.60;50.70;;;;;;5038755;28;20032;-81
2022/08/13 01:40:10;;;;;;;3.60;1.00;;;22.50;50.70;;;;;;5055755;28;20124;-81
2022/08/13 01:42:42;;;;;;;3.47;1.15;;;22.50;50.70;;;;;;5055291;28;20024;-81
2022/08/13 01:45:10;;;;;;;1.85;0.88;;;22.50;50.80;;;;;;5073583;28;20017;-81
2022/08/13 01:50:29;;;;;;;5.18;1.00;;;22.40;50.80;;;;;;5073496;28;20439;-81
2022/08/13 01:53:05;;;;;;;4.60;0.93;;;22.30;50.90;;;;;;5056475;28;20499;-81
2022/08/13 01:55:42;;;;;;;4.00;1.20;;;22.30;51.20;;;;;;5073099;28;20085;-81
2022/08/13 01:58:11;;;;;;;3.75;0.90;;;22.20;51.20;;;;;;5072890;28;20024;-81
2022/08/13 02:00:39;;;;;;;2.65;1.00;;;22.20;51.40;;;;;;5073095;28;20031;-81
2022/08/13 02:03:09;;;;;;;2.53;0.70;;;22.20;51.70;;;;;;5055297;28;20017;-81
2022/08/13 02:05:38;;;;;;;3.10;0.98;;;22.10;51.80;;;;;;5073114;28;20017;-81
2022/08/13 02:08:05;;;;;;;2.88;0.90;;;22.10;52.00;;;;;;5073035;28;20040;-81
2022/08/13 02:10:31;;;;;;;3.40;0.95;;;22.10;52.10;;;;;;5054964;28;20017;-81
2022/08/13 02:12:57;;;;;;;2.95;1.00;;;22.10;52.20;;;;;;5054931;28;20055;-81
2022/08/13 02:15:23;;;;;;;2.03;0.90;;;22.00;52.40;;;;;;5073191;28;20021;-81
2022/08/13 02:17:49;;;;;;;2.38;0.95;;;22.00;52.50;;;;;;5072862;28;20025;-81
2022/08/13 02:20:18;;;;;;;3.72;1.00;;;21.90;53.10;;;;;;5055133;28;20397;-81
2022/08/13 02:22:48;;;;;;;5.38;0.93;;;21.90;52.50;;;;;;5072076;28;20036;-81
2022/08/13 02:25:16;;;;;;;4.22;0.88;;;21.90;52.60;;;;;;5072907;28;20066;-81
2022/08/13 02:27:42;;;;;;;3.88;0.85;;;21.90;52.60;;;;;;5072890;28;20029;-81
2022/08/13 02:30:12;;;;;;;3.65;0.88;;;21.80;52.60;;;;;;5072846;28;20056;-81
2022/08/13 02:32:40;;;;;;;1.70;0.70;;;21.80;52.80;;;;;;5073057;28;20102;-81
2022/08/13 02:35:08;;;;;;;2.65;0.98;;;21.80;52.70;;;;;;5054715;28;20021;-80
2022/08/13 02:37:35;;;;;;;2.30;0.70;;;21.70;52.70;;;;;;5072739;28;20032;-81
2022/08/13 02:40:03;;;;;;;5.32;1.17;;;21.70;52.70;;;;;;5072621;28;20025;-81
2022/08/13 02:42:31;;;;;;;2.88;1.23;;;21.70;52.80;;;;;;5058477;28;20048;-76
2022/08/13 02:44:58;;;;;;;4.70;0.88;;;21.60;52.90;;;;;;5059246;28;20020;-76
2022/08/13 02:47:25;;;;;;;3.38;1.13;;;21.60;53.00;;;;;;5058608;28;20031;-76
2022/08/13 02:49:52;;;;;;;7.13;1.30;;;21.60;53.20;;;;;;5076761;28;20360;-75
2022/08/13 02:52:21;;;;;;;2.53;0.90;;;21.50;53.10;;;;;;5056707;28;20553;-76
2022/08/13 02:54:49;;;;;;;2.67;1.10;;;21.50;53.30;;;;;;5061478;28;20165;-76
2022/08/13 02:57:15;;;;;;;3.30;0.63;;;21.50;54.10;;;;;;5054218;28;20060;-76
2022/08/13 02:59:41;;;;;;;1.63;0.80;;;21.50;53.50;;;;;;5037765;28;20064;-76
2022/08/13 03:02:08;;;;;;;3.83;0.80;;;21.40;53.60;;;;;;5054642;28;20017;-76
2022/08/13 03:04:35;;;;;;;3.70;0.95;;;21.40;53.60;;;;;;5055713;28;20025;-76
2022/08/13 03:07:02;;;;;;;1.88;0.80;;;21.40;53.70;;;;;;5055863;28;20534;-76
2022/08/13 03:09:29;;;;;;;1.88;0.70;;;21.40;53.90;;;;;;5055657;28;20029;-76
2022/08/13 03:12:00;;;;;;;2.72;0.70;;;21.30;53.90;;;;;;5055487;28;20128;-76
2022/08/13 03:14:29;;;;;;;2.28;0.68;;;21.30;53.90;;;;;;5037757;28;20370;-76
2022/08/13 03:16:54;;;;;;;3.03;0.70;;;21.30;53.80;;;;;;5037731;28;20453;-76
2022/08/13 03:19:21;;;;;;;4.93;0.70;;;21.20;53.60;;;;;;5055582;28;20033;-76
2022/08/13 03:21:47;;;;;;;2.85;0.80;;;21.20;53.60;;;;;;5054031;28;20389;-76
2022/08/13 03:24:18;;;;;;;1.83;0.70;;;21.20;53.70;;;;;;5054036;28;20028;-76
2022/08/13 03:26:44;;;;;;;4.75;0.80;;;21.20;53.90;;;;;;5037363;28;20051;-76
2022/08/13 03:29:11;;;;;;;3.65;0.80;;;21.10;53.80;;;;;;5054032;28;20059;-76
2022/08/13 03:31:37;;;;;;;2.60;0.80;;;21.10;54.00;;;;;;5055211;28;20493;-76
2022/08/13 03:34:04;;;;;;;3.72;0.75;;;21.10;54.10;;;;;;5070747;28;20539;-76
2022/08/13 03:36:31;;;;;;;1.33;0.68;;;21.10;54.30;;;;;;5037224;28;20098;-76
2022/08/13 03:38:58;;;;;;;2.63;0.90;;;21.10;54.40;;;;;;5070556;28;20091;-75
2022/08/13 03:41:24;;;;;;;3.08;0.75;;;21.00;54.40;;;;;;5037290;28;20079;-76
2022/08/13 03:43:51;;;;;;;2.88;0.80;;;21.00;54.30;;;;;;5037193;28;20370;-76
2022/08/13 03:46:20;;;;;;;4.40;0.65;;;21.00;54.50;;;;;;5070459;28;20464;-76
2022/08/13 03:48:47;;;;;;;2.30;0.88;;;20.90;54.60;;;;;;5037046;28;20020;-76
2022/08/13 03:51:14;;;;;;;4.65;0.70;;;20.90;54.80;;;;;;5037031;28;20033;-76
2022/08/13 03:53:41;;;;;;;2.40;0.77;;;20.90;54.80;;;;;;5070043;28;20029;-76
2022/08/13 03:56:07;;;;;;;2.72;0.77;;;20.80;54.80;;;;;;5036903;28;20051;-76
2022/08/13 03:58:33;;;;;;;1.98;0.80;;;20.80;55.00;;;;;;5070069;28;20370;-76
2022/08/13 04:01:01;;;;;;;2.17;0.57;;;20.80;55.10;;;;;;5054935;28;20592;-76
2022/08/13 04:03:30;;;;;;;3.92;0.75;;;20.80;55.30;;;;;;5036854;28;20029;-76
2022/08/13 04:06:00;;;;;;;1.98;0.80;;;20.80;55.30;;;;;;5037041;28;20453;-76
2022/08/13 04:08:28;;;;;;;3.47;0.90;;;20.70;55.30;;;;;;5054683;28;20029;-76
2022/08/13 04:10:54;;;;;;;1.90;0.80;;;20.70;55.30;;;;;;5036783;28;20025;-76
2022/08/13 04:13:21;;;;;;;2.63;0.60;;;20.60;55.20;;;;;;5036659;28;20075;-81
2022/08/13 04:15:46;;;;;;;1.65;0.70;;;20.60;55.20;;;;;;5054400;28;20107;-81
2022/08/13 04:18:13;;;;;;;6.10;1.00;;;20.60;55.30;;;;;;5036335;28;20071;-81
2022/08/13 04:20:54;;;;;;;3.08;0.77;;;20.60;55.30;;;;;;5054492;28;20021;-80
2022/08/13 04:23:20;;;;;;;2.00;0.73;;;20.60;55.20;;;;;;5036499;28;20057;-81
2022/08/13 04:25:47;;;;;;;2.05;1.02;;;20.60;55.10;;;;;;5054243;28;20040;-81
2022/08/13 04:28:15;;;;;;;2.97;0.60;;;20.50;55.30;;;;;;5036310;28;20021;-81
2022/08/13 04:30:42;;;;;;;1.90;0.68;;;20.50;55.50;;;;;;5036425;28;20025;-80
2022/08/13 04:33:13;;;;;;;2.05;0.57;;;20.50;55.60;;;;;;5054116;28;20048;-81
2022/08/13 04:35:39;;;;;;;2.63;0.70;;;20.50;55.80;;;;;;5069495;28;20025;-81
2022/08/13 04:38:09;;;;;;;2.40;0.60;;;20.50;55.80;;;;;;5060559;28;20032;-81
2022/08/13 04:40:38;;;;;;;1.10;0.60;;;20.50;55.80;;;;;;5054483;28;20029;-81
2022/08/13 04:43:05;;;;;;;2.45;0.70;;;20.50;55.90;;;;;;5072433;28;20433;-81
2022/08/13 04:45:33;;;;;;;2.10;0.65;;;20.50;55.90;;;;;;5072716;28;20025;-81
2022/08/13 04:48:03;;;;;;;2.25;0.75;;;20.50;56.40;;;;;;5056265;28;20041;-81
2022/08/13 04:50:34;;;;;;;4.97;0.70;;;20.50;55.80;;;;;;5073871;28;20020;-81
2022/08/13 04:53:01;;;;;;;1.20;0.60;;;20.40;55.80;;;;;;5072673;28;20051;-81
2022/08/13 04:55:27;;;;;;;2.08;0.70;;;20.40;55.80;;;;;;5072397;28;20024;-81
2022/08/13 04:57:53;;;;;;;6.15;0.70;;;20.50;55.80;;;;;;5055899;28;20081;-81
2022/08/13 05:00:20;;;;;;;3.80;0.60;;;20.40;55.70;;;;;;5072346;28;20107;-81
2022/08/13 05:02:46;;;;;;;1.02;0.50;;;20.50;55.70;;;;;;5055744;28;20481;-81
2022/08/13 05:05:12;;;;;;;3.13;0.70;;;20.50;55.70;;;;;;5072865;28;20107;-81
2022/08/13 05:07:38;;;;;;;3.25;0.60;;;20.50;55.60;;;;;;5055614;28;20393;-81
2022/08/13 05:10:07;;;;;;;1.40;0.65;;;20.50;55.60;;;;;;5072274;28;20031;-81
2022/08/13 05:12:37;;;;;;;4.07;0.80;;;20.50;55.60;;;;;;5073186;28;20067;-81
2022/08/13 05:15:08;;;;;;;2.17;0.70;;;20.60;55.70;;;;;;5073382;28;20063;-81
2022/08/13 05:17:35;;;;;;;1.83;0.60;;;20.50;55.80;;;;;;5056094;28;20063;-81
2022/08/13 05:20:00;;;;;;;4.28;0.68;;;20.60;55.90;;;;;;5073228;28;20072;-81
2022/08/13 05:22:28;;;;;;;3.00;0.80;;;20.60;55.90;;;;;;5055322;28;20021;-80
2022/08/13 05:24:54;;;;;;;2.78;0.68;;;20.60;55.90;;;;;;5073203;28;20025;-81
2022/08/13 05:27:19;;;;;;;1.60;0.60;;;20.60;56.10;;;;;;5038892;28;20028;-81
2022/08/13 05:29:46;;;;;;;2.45;0.70;;;20.70;56.20;;;;;;5073381;28;20025;-81
2022/08/13 05:32:11;;;;;;;3.95;0.70;;;20.70;57.00;;;;;;5055491;28;20033;-81
2022/08/13 05:34:37;;;;;;;1.40;0.65;;;20.70;56.30;;;;;;5071822;28;20035;-81
2022/08/13 05:37:04;;;;;;;3.47;0.60;;;20.70;56.20;;;;;;5071852;28;20042;-81
2022/08/13 05:39:30;;;;;;;3.88;0.70;;;20.70;56.30;;;;;;5073117;28;20032;-81
2022/08/13 05:41:56;;;;;;;2.58;0.82;;;20.70;56.30;;;;;;5071832;28;20021;-81
2022/08/13 05:44:22;;;;;;;8.07;0.73;;;20.80;56.40;;;;;;5073049;28;20020;-81
2022/08/13 05:46:51;;;;;;;3.00;0.70;;;20.80;56.50;;;;;;5055015;28;20028;-81
2022/08/13 05:49:17;;;;;;;1.65;0.50;;;20.80;56.50;;;;;;5066703;28;20148;-81
2022/08/13 05:51:44;;;;;;;1.45;0.60;;;20.80;56.60;;;;;;5050047;28;20039;-81
2022/08/13 05:54:10;;;;;;;5.93;0.90;;;20.90;56.60;;;;;;5048503;28;20037;-81
2022/08/13 05:56:37;;;;;;;2.38;0.80;;;20.90;56.60;;;;;;5061434;28;20023;-83
2022/08/13 06:03:22;;;;;;;4.00;0.90;;;20.90;56.70;;;;;;5069647;28;20072;-81
2022/08/13 06:04:41;;;;;;;2.70;0.70;;;21.00;57.40;;;;;;5072207;28;20442;-82
2022/08/13 06:07:13;;;;;;;3.90;0.60;;;21.00;56.90;;;;;;5052060;28;20029;-82
2022/08/13 06:09:39;;;;;;;1.70;0.60;;;21.00;56.90;;;;;;5071240;28;20035;-82
2022/08/13 06:12:05;;;;;;;1.50;0.60;;;21.10;56.90;;;;;;5065540;28;20635;-83
2022/08/13 06:14:35;;;;;;;1.98;0.60;;;21.10;56.70;;;;;;5054411;28;20141;-83
2022/08/13 06:17:04;;;;;;;3.58;0.80;;;21.10;56.60;;;;;;5041844;28;20101;-83
2022/08/13 06:19:32;;;;;;;3.88;0.60;;;21.10;56.60;;;;;;5073500;28;20176;-83
2022/08/13 06:22:03;;;;;;;7.50;0.70;;;21.20;56.70;;;;;;5075181;28;20021;-83
2022/08/13 06:24:37;;;;;;;4.70;0.68;;;21.20;56.70;;;;;;5075058;28;20024;-83
2022/08/13 06:27:05;;;;;;;3.40;0.65;;;21.20;56.60;;;;;;5057611;28;20667;-83
2022/08/13 06:29:40;;;;;;;1.90;0.63;;;21.30;56.60;;;;;;5073522;28;20043;-83
2022/08/13 06:32:06;;;;;;;2.17;0.60;;;21.30;56.50;;;;;;5040003;28;20055;-83
2022/08/13 06:34:37;;;;;;;4.57;0.60;;;21.40;56.60;;;;;;5056792;28;20458;-83
2022/08/13 06:37:04;;;;;;;4.38;0.90;;;21.40;56.50;;;;;;5055422;28;20427;-83
2022/08/13 06:39:31;;;;;;;2.95;0.60;;;21.40;56.50;;;;;;5056496;28;20083;-83
2022/08/13 06:42:02;;;;;;;2.33;0.70;;;21.40;56.50;;;;;;5075999;28;20086;-84
2022/08/13 06:44:30;;;;;;;4.03;0.63;;;21.40;57.00;;;;;;5022371;28;20033;-83
2022/08/13 06:46:56;;;;;;;1.95;0.63;;;21.50;56.40;;;;;;5056332;28;20492;-82
2022/08/13 06:49:22;;;;;;;4.50;0.82;;;21.50;56.40;;;;;;5005742;28;20028;-83
2022/08/13 06:51:47;;;;;;;3.80;0.73;;;21.60;56.40;;;;;;5053777;28;20025;-83
2022/08/13 06:54:13;;;;;;;1.55;0.60;;;21.60;56.30;;;;;;5073505;28;20468;-82
2022/08/13 06:56:39;;;;;;;2.58;0.65;;;21.60;56.20;;;;;;5058361;28;20036;-83
2022/08/13 06:59:05;;;;;;;3.10;0.60;;;21.70;56.10;;;;;;5091429;28;20044;-84
2022/08/13 07:01:31;;;;;;;1.77;0.73;;;21.70;56.00;;;;;;5074825;28;20081;-83
2022/08/13 07:03:57;;;;;;;3.17;0.60;;;21.80;55.90;;;;;;5091599;28;20024;-83
2022/08/13 07:06:28;;;;;;;4.05;0.60;;;21.80;55.80;;;;;;5076048;28;20105;-83
2022/08/13 07:08:56;;;;;;;3.85;0.80;;;21.80;55.80;;;;;;5076430;28;20028;-83
2022/08/13 07:11:27;;;;;;;2.63;0.70;;;21.90;55.80;;;;;;5076479;28;20144;-82
2022/08/13 07:13:56;;;;;;;2.78;0.80;;;21.90;55.70;;;;;;5075964;28;20104;-83
2022/08/13 07:16:27;;;;;;;2.22;0.80;;;22.00;55.60;;;;;;5057797;28;20107;-83
2022/08/13 07:18:53;;;;;;;1.50;0.63;;;22.00;55.60;;;;;;5075784;28;20056;-83
2022/08/13 07:21:24;;;;;;;2.30;0.70;;;22.00;55.40;;;;;;5057806;28;20096;-83
2022/08/13 07:23:51;;;;;;;2.92;0.75;;;22.20;55.40;;;;;;5091166;28;20442;-83
2022/08/13 07:26:19;;;;;;;3.38;0.60;;;22.20;55.40;;;;;;5057448;28;20024;-84
2022/08/13 07:28:49;;;;;;;1.77;0.73;;;22.20;55.40;;;;;;5075638;28;20473;-83
2022/08/13 07:31:25;;;;;;;2.30;0.60;;;22.30;55.50;;;;;;5075515;28;20130;-82
2022/08/13 07:33:53;;;;;;;1.30;0.60;;;22.40;55.40;;;;;;5075596;28;20016;-84
2022/08/13 07:36:20;;;;;;;1.35;0.60;;;22.40;55.30;;;;;;5057864;28;20465;-83
2022/08/13 07:38:47;;;;;;;4.65;0.85;;;22.40;55.30;;;;;;5057212;28;20435;-82
2022/08/13 07:41:14;;;;;;;2.05;0.85;;;22.50;55.30;;;;;;5057705;28;20112;-82
2022/08/13 07:43:44;;;;;;;3.70;0.70;;;22.60;55.20;;;;;;5090937;28;20074;-83
2022/08/13 07:46:17;;;;;;;4.50;0.88;;;22.60;55.20;;;;;;5075318;28;20165;-83
2022/08/13 07:48:52;;;;;;;3.17;0.68;;;22.70;55.20;;;;;;5075524;28;20095;-82
2022/08/13 07:51:20;;;;;;;1.67;0.70;;;22.70;55.20;;;;;;5057283;28;20384;-83
2022/08/13 07:53:52;;;;;;;2.80;0.80;;;22.80;55.20;;;;;;5057100;28;20115;-83
2022/08/13 07:56:28;;;;;;;2.45;0.70;;;22.80;55.00;;;;;;5075179;28;20043;-84
2022/08/13 07:59:00;;;;;;;4.50;1.00;;;22.90;55.00;;;;;;5057090;28;20027;-84
2022/08/13 08:01:29;;;;;;;2.45;0.90;;;23.00;54.90;;;;;;5075001;28;20361;-84
2022/08/13 08:03:57;;;;;;;2.38;0.60;;;23.00;54.80;;;;;;5056967;28;20020;-82
2022/08/13 08:06:24;;;;;;;2.85;0.98;;;23.10;54.90;;;;;;5051506;28;20021;-83
2022/08/13 08:08:53;;;;;;;3.38;0.68;;;23.10;54.70;;;;;;5087609;28;20082;-84
2022/08/13 08:14:09;;;;;;;2.03;0.77;;;23.20;54.50;;;;;;5075022;28;20035;-83
2022/08/13 08:16:36;;;;;;;1.92;0.70;;;23.30;54.50;;;;;;5056449;28;20393;-84
2022/08/13 08:19:05;;;;;;;2.88;0.70;;;23.40;54.40;;;;;;5056777;28;20032;-84
2022/08/13 08:21:32;;;;;;;1.80;0.60;;;23.40;54.40;;;;;;5056656;28;20020;-84
2022/08/13 08:24:02;;;;;;;7.35;0.70;;;23.50;54.50;;;;;;5056388;28;20381;-83
2022/08/13 08:26:29;;;;;;;1.83;0.63;;;23.60;54.40;;;;;;5074429;28;20039;-84
2022/08/13 08:28:57;;;;;;;2.10;0.73;;;23.60;54.30;;;;;;5074311;28;20480;-84
2022/08/13 08:31:24;;;;;;;5.70;1.00;;;23.70;54.30;;;;;;5056559;28;20037;-83
2022/08/13 08:33:50;;;;;;;8.18;0.77;;;23.80;54.10;;;;;;5074195;28;20020;-83
2022/08/13 08:36:17;;;;;;;6.25;0.93;;;23.90;54.00;;;;;;5074264;28;20033;-83
2022/08/13 08:44:23;;;;;;;3.63;0.70;;;24.00;53.60;;;;;;5071107;28;20096;-84
2022/08/13 08:46:53;;;;;;;4.13;1.10;;;24.20;53.30;;;;;;5055844;28;20387;-83
2022/08/13 08:49:21;;;;;;;1.88;0.60;;;24.20;53.00;;;;;;5072844;28;20021;-83
2022/08/13 08:51:53;;;;;;;1.58;0.63;;;24.30;52.80;;;;;;5073270;28;20032;-85
2022/08/13 08:54:20;;;;;;;2.03;0.80;;;24.40;52.80;;;;;;5056147;28;20102;-84
2022/08/13 08:56:54;;;;;;;2.40;0.80;;;24.50;52.50;;;;;;5074778;28;20028;-84
2022/08/13 08:59:23;;;;;;;1.17;0.60;;;24.60;52.30;;;;;;5056504;28;20046;-84
2022/08/13 09:01:52;;;;;;;1.67;0.77;;;24.70;52.20;;;;;;5039357;28;20039;-84
2022/08/13 09:04:19;;;;;;;9.27;0.80;;;24.70;52.10;;;;;;5056309;28;20473;-85
2022/08/13 09:06:52;;;;;;;4.90;0.60;;;24.80;51.90;;;;;;5022796;28;20024;-84
2022/08/13 09:09:19;;;;;;;1.97;0.53;;;24.90;51.60;;;;;;5073539;28;20021;-84
2022/08/13 09:11:49;;;;;;;2.20;0.50;;;25.00;51.70;;;;;;5055441;28;20144;-84
2022/08/13 09:14:15;;;;;;;1.42;0.50;;;25.10;51.50;;;;;;5039469;28;20082;-84
2022/08/13 09:16:41;;;;;;;2.53;0.50;;;25.20;51.30;;;;;;5055664;28;20024;-86
2022/08/13 09:19:14;;;;;;;1.63;0.68;;;25.30;51.00;;;;;;5039248;28;20035;-88
2022/08/13 09:21:47;;;;;;;2.08;0.60;;;25.40;50.70;;;;;;5039376;28;20021;-84
2022/08/13 09:24:15;;;;;;;4.88;0.80;;;25.50;50.40;;;;;;5055872;28;20021;-84
2022/08/13 09:26:47;;;;;;;3.55;0.70;;;25.60;50.30;;;;;;5055895;28;20070;-84
2022/08/13 09:29:18;;;;;;;3.45;0.60;;;25.70;50.10;;;;;;5073251;28;20028;-82
2022/08/13 09:31:50;;;;;;;3.50;0.85;;;25.80;50.10;;;;;;5038538;28;20033;-84
2022/08/13 09:34:17;;;;;;;4.53;0.70;;;25.80;50.00;;;;;;5035472;28;20420;-82
2022/08/13 09:36:43;;;;;;;3.28;0.60;;;26.00;49.80;;;;;;5053142;28;20029;-83
2022/08/13 09:39:10;;;;;;;3.17;0.70;;;26.10;49.60;;;;;;5035486;28;20021;-83
2022/08/13 09:41:49;;;;;;;4.18;0.50;;;26.20;49.50;;;;;;5037473;28;20024;-83
2022/08/13 09:44:18;;;;;;;2.70;0.50;;;26.30;49.30;;;;;;5054977;28;20112;-83
2022/08/13 09:46:45;;;;;;;2.10;0.70;;;26.40;49.20;;;;;;5073079;28;20111;-84
2022/08/13 09:49:14;;;;;;;1.55;0.50;;;26.50;49.10;;;;;;5055224;28;20028;-84
2022/08/13 09:51:39;;;;;;;3.00;0.60;;;26.60;49.50;;;;;;5055521;28;20496;-83
2022/08/13 09:54:09;;;;;;;4.57;0.70;;;26.70;48.70;;;;;;5055244;28;20036;-83
2022/08/13 09:56:38;;;;;;;2.05;0.68;;;26.80;48.70;;;;;;5071982;28;20039;-83
2022/08/13 09:59:08;;;;;;;4.05;0.70;;;26.90;48.60;;;;;;5055312;28;20469;-82
2022/08/13 10:01:35;;;;;;;1.67;0.50;;;26.90;48.30;;;;;;5073157;28;20031;-83
2022/08/13 10:04:01;;;;;;;4.85;0.88;;;27.00;48.10;;;;;;5071827;28;20027;-83
2022/08/13 10:06:28;;;;;;;2.40;0.50;;;27.10;47.90;;;;;;5038403;28;20467;-83
2022/08/13 10:08:55;;;;;;;1.83;0.50;;;27.20;47.50;;;;;;5055468;28;20032;-85
2022/08/13 10:11:22;;;;;;;1.17;0.50;;;27.30;47.30;;;;;;5055057;28;20496;-84
2022/08/13 10:13:48;;;;;;;2.08;0.60;;;27.40;47.10;;;;;;5038382;28;20050;-82
2022/08/13 10:16:14;;;;;;;3.00;0.85;;;27.40;46.80;;;;;;5072674;28;20036;-83
2022/08/13 10:18:41;;;;;;;1.13;0.50;;;27.50;46.50;;;;;;5072739;28;20037;-83
2022/08/13 10:21:08;;;;;;;2.05;0.70;;;27.70;46.40;;;;;;5054892;28;20021;-83
2022/08/13 10:23:35;;;;;;;2.13;0.60;;;27.80;46.40;;;;;;5071433;28;20078;-83
2022/08/13 10:26:01;;;;;;;4.00;0.50;;;28.00;46.10;;;;;;5055077;28;20024;-82
2022/08/13 10:28:31;;;;;;;3.83;0.77;;;28.20;45.80;;;;;;5054725;28;20032;-83
2022/08/13 10:31:03;;;;;;;4.70;0.60;;;28.50;45.30;;;;;;5072699;28;20084;-85
2022/08/13 10:33:28;;;;;;;1.30;0.50;;;28.70;44.60;;;;;;5071853;28;20024;-83
2022/08/13 10:35:55;;;;;;;1.42;0.50;;;29.10;44.50;;;;;;5054873;28;20031;-83
2022/08/13 10:38:25;;;;;;;1.25;0.50;;;29.50;44.30;;;;;;5054835;28;20491;-82
2022/08/13 10:40:52;;;;;;;3.08;0.55;;;30.00;44.30;;;;;;5071332;28;20101;-85
2022/08/13 10:43:18;;;;;;;2.15;0.60;;;30.50;43.90;;;;;;5071262;28;20021;-83
2022/08/13 10:45:46;;;;;;;1.95;0.60;;;31.00;43.50;;;;;;5054794;28;20558;-84
2022/08/13 10:48:12;;;;;;;1.70;0.65;;;31.70;43.40;;;;;;5072546;28;20090;-83
2022/08/13 10:50:39;;;;;;;3.42;0.43;;;32.30;42.90;;;;;;5071680;28;20055;-83
2022/08/13 10:53:05;;;;;;;1.10;0.47;;;33.10;42.60;;;;;;5072693;28;20048;-83
2022/08/13 10:55:31;;;;;;;2.15;0.50;;;33.90;42.10;;;;;;5054576;28;20538;-83
2022/08/13 10:57:56;;;;;;;0.98;0.50;;;34.70;41.20;;;;;;5054667;28;20431;-83
2022/08/13 11:00:22;;;;;;;1.65;0.57;;;35.40;40.20;;;;;;5054687;28;20039;-83
2022/08/13 11:02:50;;;;;;;1.27;0.50;;;36.00;39.10;;;;;;5040506;28;20020;-83
2022/08/13 11:05:17;;;;;;;1.42;0.52;;;36.80;38.40;;;;;;5041681;28;20066;-84
2022/08/13 11:07:45;;;;;;;1.20;0.45;;;37.50;37.70;;;;;;5075972;28;20028;-85
2022/08/13 11:10:11;;;;;;;2.80;0.57;;;38.20;36.80;;;;;;5074614;28;20035;-82
2022/08/13 11:12:37;;;;;;;1.10;0.40;;;38.90;36.30;;;;;;5075828;28;20049;-84
2022/08/13 11:15:07;;;;;;;2.88;0.50;;;39.40;35.30;;;;;;5075388;28;20500;-85
2022/08/13 11:17:33;;;;;;;0.88;0.40;;;40.00;34.50;;;;;;5075547;28;20020;-84
2022/08/13 11:20:04;;;;;;;1.83;0.50;;;40.40;33.70;;;;;;5075963;28;20025;-82
2022/08/13 11:22:30;;;;;;;1.50;0.50;;;40.80;33.00;;;;;;5055621;28;20019;-83
2022/08/13 11:24:59;;;;;;;4.25;0.50;;;41.20;32.60;;;;;;5065261;28;20372;-82
2022/08/13 11:27:25;;;;;;;3.47;0.50;;;41.50;31.90;;;;;;5079949;28;20043;-83
2022/08/13 11:29:53;;;;;;;0.57;0.40;;;41.80;31.60;;;;;;5059429;28;20542;-85
2022/08/13 11:32:21;;;;;;;1.20;0.50;;;42.00;30.90;;;;;;5077570;28;20028;-83
2022/08/13 11:34:47;;;;;;;1.50;0.45;;;42.30;30.80;;;;;;5042925;28;20511;-82
2022/08/13 11:37:13;;;;;;;1.23;0.40;;;42.50;30.40;;;;;;5041575;28;20028;-83
2022/08/13 11:39:38;;;;;;;2.42;0.50;;;42.80;30.10;;;;;;5058301;28;20480;-82
2022/08/13 11:42:04;;;;;;;0.50;0.30;;;43.00;29.80;;;;;;5058071;28;20498;-84
2022/08/13 11:44:30;;;;;;;2.92;0.50;;;43.20;29.50;;;;;;5058019;28;20039;-84
2022/08/13 11:46:56;;;;;;;1.33;0.50;;;43.40;29.40;;;;;;5057780;28;20029;-82
2022/08/13 11:49:21;;;;;;;1.10;0.50;;;43.60;29.20;;;;;;5057386;28;20039;-83
2022/08/13 11:51:48;;;;;;;1.70;0.40;;;43.80;29.70;;;;;;5074227;28;20526;-83
2022/08/13 11:54:14;;;;;;;5.47;0.60;;;44.00;29.20;;;;;;5074330;28;20100;-83
2022/08/13 11:56:40;;;;;;;1.60;0.30;;;44.20;29.10;;;;;;5057390;28;20425;-83
2022/08/13 11:59:05;;;;;;;1.55;0.30;;;44.30;28.90;;;;;;5057299;28;20116;-82
2022/08/13 12:01:32;;;;;;;0.93;0.40;;;44.30;28.80;;;;;;5057206;28;20046;-82
2022/08/13 12:03:57;;;;;;;1.50;0.30;;;44.10;28.60;;;;;;5057239;28;20056;-83
2022/08/13 12:06:23;;;;;;;1.15;0.35;;;43.90;28.50;;;;;;5074792;28;20083;-83
2022/08/13 12:08:48;;;;;;;1.40;0.30;;;43.70;28.40;;;;;;5056730;28;20457;-84
2022/08/13 12:11:15;;;;;;;2.97;0.30;;;43.50;28.40;;;;;;5073331;28;20061;-82
2022/08/13 12:13:41;;;;;;;0.63;0.20;;;43.50;28.30;;;;;;5055756;28;20107;-82
2022/08/13 12:16:06;;;;;;;0.77;0.30;;;43.30;28.20;;;;;;5056696;28;20116;-82
2022/08/13 12:18:32;;;;;;;0.85;0.40;;;43.20;28.10;;;;;;5039992;28;20317;-83
2022/08/13 12:20:58;;;;;;;2.58;0.50;;;43.10;28.30;;;;;;5056710;28;20029;-83
2022/08/13 12:23:23;;;;;;;2.88;0.40;;;43.00;28.50;;;;;;5056740;28;20032;-82
2022/08/13 12:25:49;;;;;;;2.58;0.40;;;43.00;28.60;;;;;;5040051;28;20028;-80
2022/08/13 12:28:25;;;;;;;0.52;0.30;;;42.90;28.50;;;;;;5056553;28;20538;-80
2022/08/13 12:30:58;;;;;;;1.77;0.40;;;42.90;28.50;;;;;;5073143;28;20515;-80
2022/08/13 12:33:26;;;;;;;0.85;0.47;;;42.70;28.40;;;;;;5056580;28;20078;-82
2022/08/13 12:35:51;;;;;;;1.27;0.40;;;42.70;28.30;;;;;;5039821;28;20102;-82
2022/08/13 12:38:17;;;;;;;3.67;0.45;;;42.60;28.30;;;;;;5074312;28;20407;-85
2022/08/13 12:40:45;;;;;;;1.70;0.30;;;42.50;28.30;;;;;;5074112;28;20048;-83
2022/08/13 12:43:11;;;;;;;1.00;0.40;;;42.50;28.40;;;;;;5074745;28;20025;-83
2022/08/13 12:45:39;;;;;;;1.23;0.30;;;42.50;28.40;;;;;;5074099;28;20033;-82
2022/08/13 12:48:16;;;;;;;0.90;0.40;;;42.50;28.40;;;;;;5074463;28;20025;-83
2022/08/13 12:50:45;;;;;;;1.15;0.30;;;42.60;28.20;;;;;;5055774;28;20040;-83
2022/08/13 12:53:12;;;;;;;1.00;0.30;;;42.60;28.20;;;;;;5074027;28;20016;-83
2022/08/13 12:55:39;;;;;;;1.15;0.40;;;42.60;28.30;;;;;;5055910;28;20017;-83
2022/08/13 12:58:21;;;;;;;1.77;0.40;;;42.60;28.30;;;;;;5055825;28;20099;-83
2022/08/13 13:00:49;;;;;;;1.70;0.30;;;42.70;28.30;;;;;;5055821;28;20033;-83
2022/08/13 13:03:17;;;;;;;1.65;0.30;;;42.70;28.30;;;;;;5055848;28;20028;-83
2022/08/13 13:05:45;;;;;;;0.70;0.30;;;42.80;28.20;;;;;;5056320;28;20044;-82
2022/08/13 13:08:21;;;;;;;1.27;0.40;;;42.90;28.20;;;;;;5055656;28;20036;-83
2022/08/13 13:10:48;;;;;;;0.70;0.30;;;43.00;28.20;;;;;;5055454;28;20025;-83